Darstellungsparameter: Aktuell verwendete Einstellungen:
Skalierung der Graphiken ... ?
xyx+y,   Skalierungsfaktor:      Skalierung: Modus: x, Faktor: 1
Darstellungszeitraum ... ?
Vom - - bis: - -   Zeitraum: 11.09.2019 - 12.09.2019
Min/Max/Avg-Anzeige ... ?
Zeige MMA aktuell
Zeige MMA Monat
Zeige MMA alles
Zeige --A aktuell
Zeige --A Monat
Zeige --A alles
Keine MMA-Anzeige
MMA:
Keine MMA-Graphiken
MMA-Basis: 11.09.2019 - 12.09.2019
Quicknavigation für Darstellung... ?
Tage:      1T, 2T, 3T, 5T -1T -2T -3T -5T +1T +2T +3T +5T
Wochen: 1W, 2W, 3W -1W -2W -3W +1W +2W +3W
Monate: 1M, 3M, 6M -1M -3M -6M +1M +3M +6M
Jahre:    1J, 3J, 5J, 10J -1J -3J -5J -10J +1J +3J +5J +10J
Nutze für die Darstellung ... ?
Originaldaten oder Mittelwerte auf ...
Stundenbasis Tagesbasis Wochenbasis
Monatsbasis Jahresbasis      Datenbasis: Original-Daten
Darstellen als:
Statistik (Auto) Statistik J:M      Darstellung:
Zur Graphik,    zurück zur Übersicht aller Sensoren.
 
Tabellarische Datenbersicht: ?
 
Sensor: Nr:Datum:Temp:Feuchte:Taupunkt:
Aussen-T/F 1 11-09-2019 00:00:00 9.4 C 89 % 7.68 C
2 11-09-2019 00:05:00 9.4 C 89 % 7.68 C
3 11-09-2019 00:10:00 9.3 C 90 % 7.75 C
4 11-09-2019 00:15:00 9.3 C 90 % 7.75 C
5 11-09-2019 00:20:00 9.2 C 90 % 7.65 C
6 11-09-2019 00:25:00 9.2 C 90 % 7.65 C
7 11-09-2019 00:30:00 9.2 C 90 % 7.65 C
8 11-09-2019 00:35:00 9.2 C 91 % 7.81 C
9 11-09-2019 00:40:00 9.2 C 91 % 7.81 C
10 11-09-2019 00:45:00 9.1 C 90 % 7.55 C
11 11-09-2019 00:50:00 9 C 90 % 7.45 C
12 11-09-2019 00:55:00 8.9 C 91 % 7.51 C
13 11-09-2019 01:00:00 9 C 91 % 7.61 C
14 11-09-2019 01:05:00 8.9 C 91 % 7.51 C
15 11-09-2019 01:10:00 8.8 C 91 % 7.41 C
16 11-09-2019 01:15:00 8.8 C 91 % 7.41 C
17 11-09-2019 01:20:00 8.7 C 91 % 7.32 C
18 11-09-2019 01:25:00 8.6 C 91 % 7.22 C
19 11-09-2019 01:30:00 8.6 C 91 % 7.22 C
20 11-09-2019 01:35:00 8.6 C 92 % 7.38 C
21 11-09-2019 01:40:00 8.4 C 91 % 7.02 C
22 11-09-2019 01:45:00 8.4 C 92 % 7.18 C
23 11-09-2019 01:50:00 8.3 C 92 % 7.08 C
24 11-09-2019 01:55:00 8.3 C 92 % 7.08 C
25 11-09-2019 02:00:00 8.2 C 92 % 6.98 C
Sensor: Nr:Datum:Temp:Feuchte:Taupunkt:
Aussen-T/F 26 11-09-2019 02:05:00 8.2 C 92 % 6.98 C
27 11-09-2019 02:10:00 8.2 C 92 % 6.98 C
28 11-09-2019 02:15:00 8.2 C 93 % 7.14 C
29 11-09-2019 02:20:00 8.1 C 93 % 7.04 C
30 11-09-2019 02:25:00 8.1 C 93 % 7.04 C
31 11-09-2019 02:30:00 8.1 C 93 % 7.04 C
32 11-09-2019 02:35:00 8 C 93 % 6.94 C
33 11-09-2019 02:40:00 7.9 C 93 % 6.84 C
34 11-09-2019 02:45:00 7.9 C 93 % 6.84 C
35 11-09-2019 02:50:00 7.8 C 93 % 6.74 C
36 11-09-2019 02:55:00 7.8 C 93 % 6.74 C
37 11-09-2019 03:00:00 7.8 C 93 % 6.74 C
38 11-09-2019 03:05:00 7.8 C 93 % 6.74 C
39 11-09-2019 03:10:00 7.7 C 93 % 6.64 C
40 11-09-2019 03:15:00 7.7 C 93 % 6.64 C
41 11-09-2019 03:20:00 7.6 C 93 % 6.54 C
42 11-09-2019 03:25:00 7.6 C 93 % 6.54 C
43 11-09-2019 03:30:00 7.6 C 94 % 6.7 C
44 11-09-2019 03:35:00 7.6 C 94 % 6.7 C
45 11-09-2019 03:40:00 7.6 C 94 % 6.7 C
46 11-09-2019 03:45:00 7.6 C 94 % 6.7 C
47 11-09-2019 03:50:00 7.6 C 94 % 6.7 C
48 11-09-2019 03:55:00 7.5 C 94 % 6.6 C
49 11-09-2019 04:00:00 7.4 C 94 % 6.5 C
50 11-09-2019 04:05:00 7.4 C 94 % 6.5 C
Sensor: Nr:Datum:Temp:Feuchte:Taupunkt:
Aussen-T/F 51 11-09-2019 04:10:00 7.4 C 94 % 6.5 C
52 11-09-2019 04:15:00 7.4 C 94 % 6.5 C
53 11-09-2019 04:20:00 7.3 C 94 % 6.4 C
54 11-09-2019 04:25:00 7.3 C 94 % 6.4 C
55 11-09-2019 04:30:00 7.2 C 94 % 6.3 C
56 11-09-2019 04:35:00 7.2 C 94 % 6.3 C
57 11-09-2019 04:40:00 7.1 C 94 % 6.2 C
58 11-09-2019 04:45:00 7.1 C 94 % 6.2 C
59 11-09-2019 04:50:00 7.2 C 94 % 6.3 C
60 11-09-2019 04:55:00 7.2 C 94 % 6.3 C
61 11-09-2019 05:00:00 7.1 C 94 % 6.2 C
62 11-09-2019 05:05:00 7.1 C 94 % 6.2 C
63 11-09-2019 05:10:00 7 C 94 % 6.1 C
64 11-09-2019 05:15:00 6.9 C 95 % 6.16 C
65 11-09-2019 05:20:00 6.9 C 95 % 6.16 C
66 11-09-2019 05:25:00 6.9 C 95 % 6.16 C
67 11-09-2019 05:30:00 6.9 C 95 % 6.16 C
68 11-09-2019 05:35:00 6.8 C 95 % 6.06 C
69 11-09-2019 05:40:00 6.8 C 95 % 6.06 C
70 11-09-2019 05:45:00 6.8 C 95 % 6.06 C
71 11-09-2019 05:50:00 6.8 C 95 % 6.06 C
72 11-09-2019 05:55:00 6.9 C 95 % 6.16 C
73 11-09-2019 06:00:00 6.9 C 95 % 6.16 C
74 11-09-2019 06:05:00 6.8 C 95 % 6.06 C
75 11-09-2019 06:10:00 6.8 C 95 % 6.06 C
Sensor: Nr:Datum:Temp:Feuchte:Taupunkt:
Aussen-T/F 76 11-09-2019 06:15:00 6.7 C 95 % 5.96 C
77 11-09-2019 06:20:00 6.7 C 95 % 5.96 C
78 11-09-2019 06:25:00 6.7 C 95 % 5.96 C
79 11-09-2019 06:30:00 6.6 C 95 % 5.86 C
80 11-09-2019 06:35:00 6.6 C 95 % 5.86 C
81 11-09-2019 06:40:00 6.6 C 95 % 5.86 C
82 11-09-2019 06:45:00 6.6 C 95 % 5.86 C
83 11-09-2019 06:50:00 6.5 C 95 % 5.76 C
84 11-09-2019 06:55:00 6.4 C 95 % 5.66 C
85 11-09-2019 07:00:00 6.4 C 95 % 5.66 C
86 11-09-2019 07:05:00 6.4 C 95 % 5.66 C
87 11-09-2019 07:10:00 6.4 C 95 % 5.66 C
88 11-09-2019 07:15:00 6.4 C 95 % 5.66 C
89 11-09-2019 07:20:00 6.4 C 96 % 5.81 C
90 11-09-2019 07:25:00 6.5 C 96 % 5.91 C
91 11-09-2019 07:30:00 6.6 C 96 % 6.01 C
92 11-09-2019 07:35:00 6.6 C 96 % 6.01 C
93 11-09-2019 07:40:00 6.7 C 96 % 6.11 C
94 11-09-2019 07:45:00 6.7 C 96 % 6.11 C
95 11-09-2019 07:50:00 6.7 C 96 % 6.11 C
96 11-09-2019 07:55:00 6.8 C 96 % 6.21 C
97 11-09-2019 08:00:00 7.1 C 96 % 6.51 C
98 11-09-2019 08:05:00 7.2 C 96 % 6.61 C
99 11-09-2019 08:10:00 7.3 C 96 % 6.71 C
100 11-09-2019 08:15:00 7.6 C 96 % 7 C
Sensor: Nr:Datum:Temp:Feuchte:Taupunkt:
Aussen-T/F 101 11-09-2019 08:20:00 7.8 C 97 % 7.35 C
102 11-09-2019 08:25:00 7.9 C 96 % 7.3 C
103 11-09-2019 08:30:00 8.2 C 97 % 7.75 C
104 11-09-2019 08:35:00 8.3 C 97 % 7.85 C
105 11-09-2019 08:40:00 8.4 C 97 % 7.95 C
106 11-09-2019 08:45:00 8.6 C 97 % 8.15 C
107 11-09-2019 08:50:00 8.7 C 97 % 8.25 C
108 11-09-2019 08:55:00 8.8 C 96 % 8.2 C
109 11-09-2019 09:00:00 8.8 C 96 % 8.2 C
110 11-09-2019 09:05:00 9.1 C 96 % 8.5 C
111 11-09-2019 09:10:00 9.3 C 96 % 8.7 C
112 11-09-2019 09:15:00 9.3 C 95 % 8.54 C
113 11-09-2019 09:20:00 9.4 C 95 % 8.64 C
114 11-09-2019 09:25:00 9.6 C 94 % 8.68 C
115 11-09-2019 09:30:00 9.7 C 94 % 8.78 C
116 11-09-2019 09:35:00 9.7 C 93 % 8.62 C
117 11-09-2019 09:40:00 9.7 C 93 % 8.62 C
118 11-09-2019 09:45:00 9.8 C 93 % 8.72 C
119 11-09-2019 09:50:00 9.9 C 93 % 8.82 C
120 11-09-2019 09:55:00 9.9 C 93 % 8.82 C
121 11-09-2019 10:00:00 10 C 93 % 8.92 C
122 11-09-2019 10:05:00 10.1 C 94 % 9.18 C
123 11-09-2019 10:10:00 10.2 C 94 % 9.28 C
124 11-09-2019 10:15:00 10.3 C 94 % 9.38 C
125 11-09-2019 10:20:00 10.6 C 94 % 9.68 C
Sensor: Nr:Datum:Temp:Feuchte:Taupunkt:
Aussen-T/F 126 11-09-2019 10:25:00 10.8 C 94 % 9.87 C
127 11-09-2019 10:30:00 11 C 94 % 10.07 C
128 11-09-2019 10:35:00 11.2 C 94 % 10.27 C
129 11-09-2019 10:40:00 11.3 C 94 % 10.37 C
130 11-09-2019 10:45:00 11.4 C 93 % 10.31 C
131 11-09-2019 10:50:00 11.6 C 93 % 10.51 C
132 11-09-2019 10:55:00 11.7 C 93 % 10.61 C
133 11-09-2019 11:00:00 11.8 C 93 % 10.71 C
134 11-09-2019 11:05:00 12 C 92 % 10.74 C
135 11-09-2019 11:10:00 12.2 C 92 % 10.94 C
136 11-09-2019 11:15:00 12.4 C 92 % 11.14 C
137 11-09-2019 11:20:00 12.6 C 91 % 11.17 C
138 11-09-2019 11:25:00 12.8 C 90 % 11.2 C
139 11-09-2019 11:30:00 13.1 C 89 % 11.33 C
140 11-09-2019 11:35:00 13.4 C 88 % 11.45 C
141 11-09-2019 11:40:00 13.8 C 87 % 11.68 C
142 11-09-2019 11:45:00 14.1 C 86 % 11.8 C
143 11-09-2019 11:50:00 14.4 C 83 % 11.55 C
144 11-09-2019 11:55:00 14.7 C 82 % 11.66 C
145 11-09-2019 12:00:00 15.2 C 76 % 11 C
146 11-09-2019 12:05:00 15.7 C 77 % 11.68 C
147 11-09-2019 12:10:00 16.1 C 76 % 11.87 C
148 11-09-2019 12:15:00 16.4 C 71 % 11.13 C
149 11-09-2019 12:20:00 16.9 C 68 % 10.96 C
150 11-09-2019 12:25:00 17.3 C 66 % 10.89 C
Sensor: Nr:Datum:Temp:Feuchte:Taupunkt:
Aussen-T/F 151 11-09-2019 12:30:00 17.7 C 67 % 11.5 C
152 11-09-2019 12:35:00 17.9 C 63 % 10.76 C
153 11-09-2019 12:40:00 18.2 C 61 % 10.56 C
154 11-09-2019 12:45:00 18.6 C 60 % 10.69 C
155 11-09-2019 12:50:00 18.7 C 59 % 10.53 C
156 11-09-2019 12:55:00 18.8 C 59 % 10.63 C
157 11-09-2019 13:00:00 18.9 C 59 % 10.72 C
158 11-09-2019 13:05:00 19.1 C 58 % 10.65 C
159 11-09-2019 13:10:00 19.4 C 56 % 10.4 C
160 11-09-2019 13:15:00 19.6 C 58 % 11.12 C
161 11-09-2019 13:20:00 19.9 C 57 % 11.14 C
162 11-09-2019 13:25:00 20.1 C 58 % 11.58 C
163 11-09-2019 13:30:00 20.2 C 58 % 11.68 C
164 11-09-2019 13:35:00 20.3 C 58 % 11.77 C
165 11-09-2019 13:40:00 20.4 C 57 % 11.6 C
166 11-09-2019 13:45:00 20.4 C 59 % 12.12 C
167 11-09-2019 13:50:00 20.3 C 58 % 11.77 C
168 11-09-2019 13:55:00 20.2 C 59 % 11.94 C
169 11-09-2019 14:00:00 20.1 C 57 % 11.32 C
170 11-09-2019 14:05:00 20.2 C 59 % 11.94 C
171 11-09-2019 14:10:00 20.3 C 56 % 11.24 C
172 11-09-2019 14:15:00 20.5 C 56 % 11.43 C
173 11-09-2019 14:20:00 20.6 C 56 % 11.52 C
174 11-09-2019 14:25:00 20.7 C 55 % 11.34 C
175 11-09-2019 14:30:00 20.7 C 55 % 11.34 C
Sensor: Nr:Datum:Temp:Feuchte:Taupunkt:
Aussen-T/F 176 11-09-2019 14:35:00 20.7 C 55 % 11.34 C
177 11-09-2019 14:40:00 20.8 C 54 % 11.16 C
178 11-09-2019 14:45:00 20.9 C 53 % 10.97 C
179 11-09-2019 14:50:00 20.8 C 53 % 10.88 C
180 11-09-2019 14:55:00 20.7 C 54 % 11.07 C
181 11-09-2019 15:00:00 20.7 C 56 % 11.61 C
182 11-09-2019 15:05:00 20.7 C 55 % 11.34 C
183 11-09-2019 15:10:00 20.7 C 54 % 11.07 C
184 11-09-2019 15:15:00 20.6 C 55 % 11.25 C
185 11-09-2019 15:20:00 20.6 C 57 % 11.79 C
186 11-09-2019 15:25:00 20.6 C 55 % 11.25 C
187 11-09-2019 15:30:00 20.5 C 56 % 11.43 C
188 11-09-2019 15:35:00 20.4 C 58 % 11.86 C
189 11-09-2019 15:40:00 20.4 C 58 % 11.86 C
190 11-09-2019 15:45:00 20.4 C 57 % 11.6 C
191 11-09-2019 15:50:00 20.4 C 58 % 11.86 C
192 11-09-2019 15:55:00 20.4 C 59 % 12.12 C
193 11-09-2019 16:00:00 20.3 C 58 % 11.77 C
194 11-09-2019 16:05:00 20.3 C 59 % 12.03 C
195 11-09-2019 16:10:00 20.3 C 58 % 11.77 C
196 11-09-2019 16:15:00 20.2 C 57 % 11.42 C
197 11-09-2019 16:20:00 20.2 C 58 % 11.68 C
198 11-09-2019 16:25:00 20.2 C 65 % 13.41 C
199 11-09-2019 16:30:00 20.1 C 62 % 12.6 C
200 11-09-2019 16:35:00 20 C 68 % 13.92 C
Sensor: Nr:Datum:Temp:Feuchte:Taupunkt:
Aussen-T/F 201 11-09-2019 16:40:00 19.9 C 72 % 14.7 C
202 11-09-2019 16:45:00 19.8 C 71 % 14.39 C
203 11-09-2019 16:50:00 19.7 C 74 % 14.94 C
204 11-09-2019 16:55:00 19.4 C 72 % 14.22 C
205 11-09-2019 17:00:00 19.3 C 67 % 13.02 C
206 11-09-2019 17:05:00 19.3 C 67 % 13.02 C
207 11-09-2019 17:10:00 19.3 C 67 % 13.02 C
208 11-09-2019 17:15:00 19.3 C 65 % 12.56 C
209 11-09-2019 17:20:00 19.3 C 63 % 12.09 C
210 11-09-2019 17:25:00 19.3 C 64 % 12.32 C
211 11-09-2019 17:30:00 19.2 C 66 % 12.7 C
212 11-09-2019 17:35:00 19.2 C 64 % 12.23 C
213 11-09-2019 17:40:00 19.1 C 66 % 12.6 C
214 11-09-2019 17:45:00 19.1 C 71 % 13.72 C
215 11-09-2019 17:50:00 18.8 C 67 % 12.55 C
216 11-09-2019 17:55:00 18.8 C 65 % 12.09 C
217 11-09-2019 18:00:00 18.7 C 64 % 11.76 C
218 11-09-2019 18:05:00 18.7 C 65 % 11.99 C
219 11-09-2019 18:10:00 18.7 C 64 % 11.76 C
220 11-09-2019 18:15:00 18.6 C 63 % 11.42 C
221 11-09-2019 18:20:00 18.6 C 66 % 12.13 C
222 11-09-2019 18:25:00 18.5 C 67 % 12.26 C
223 11-09-2019 18:30:00 18.3 C 67 % 12.07 C
224 11-09-2019 18:35:00 18.3 C 70 % 12.74 C
225 11-09-2019 18:40:00 18.2 C 72 % 13.07 C
Sensor: Nr:Datum:Temp:Feuchte:Taupunkt:
Aussen-T/F 226 11-09-2019 18:45:00 18.1 C 73 % 13.19 C
227 11-09-2019 18:50:00 17.9 C 73 % 12.99 C
228 11-09-2019 18:55:00 17.7 C 74 % 13.01 C
229 11-09-2019 19:00:00 17.6 C 72 % 12.5 C
230 11-09-2019 19:05:00 17.4 C 72 % 12.3 C
231 11-09-2019 19:10:00 17.4 C 70 % 11.88 C
232 11-09-2019 19:15:00 17.3 C 72 % 12.21 C
233 11-09-2019 19:20:00 17.4 C 72 % 12.3 C
234 11-09-2019 19:25:00 17.3 C 72 % 12.21 C
235 11-09-2019 19:30:00 17.3 C 70 % 11.78 C
236 11-09-2019 19:35:00 17.2 C 69 % 11.47 C
237 11-09-2019 19:40:00 17.1 C 68 % 11.15 C
238 11-09-2019 19:45:00 17.1 C 69 % 11.37 C
239 11-09-2019 19:50:00 17.1 C 71 % 11.8 C
240 11-09-2019 19:55:00 17 C 73 % 12.13 C
241 11-09-2019 20:00:00 16.9 C 74 % 12.24 C
242 11-09-2019 20:05:00 16.8 C 74 % 12.14 C
243 11-09-2019 20:10:00 16.7 C 73 % 11.84 C
244 11-09-2019 20:15:00 16.7 C 76 % 12.45 C
245 11-09-2019 20:20:00 16.6 C 75 % 12.15 C
246 11-09-2019 20:25:00 16.4 C 75 % 11.96 C
247 11-09-2019 20:30:00 16.4 C 77 % 12.36 C
248 11-09-2019 20:35:00 16.4 C 77 % 12.36 C
249 11-09-2019 20:40:00 16.3 C 77 % 12.26 C
250 11-09-2019 20:45:00 16.3 C 77 % 12.26 C
Sensor: Nr:Datum:Temp:Feuchte:Taupunkt:
Aussen-T/F 251 11-09-2019 20:50:00 16.3 C 78 % 12.46 C
252 11-09-2019 20:55:00 16.3 C 76 % 12.07 C
253 11-09-2019 21:00:00 16.3 C 77 % 12.26 C
254 11-09-2019 21:05:00 16.3 C 78 % 12.46 C
255 11-09-2019 21:10:00 16.3 C 78 % 12.46 C
256 11-09-2019 21:15:00 16.3 C 78 % 12.46 C
257 11-09-2019 21:20:00 16.3 C 78 % 12.46 C
258 11-09-2019 21:25:00 16.3 C 78 % 12.46 C
259 11-09-2019 21:30:00 16.3 C 77 % 12.26 C
260 11-09-2019 21:35:00 16.3 C 78 % 12.46 C
261 11-09-2019 21:40:00 16.3 C 79 % 12.65 C
262 11-09-2019 21:45:00 16.2 C 79 % 12.56 C
263 11-09-2019 21:50:00 16.2 C 79 % 12.56 C
264 11-09-2019 21:55:00 16.2 C 78 % 12.36 C
265 11-09-2019 22:00:00 16.2 C 78 % 12.36 C
266 11-09-2019 22:05:00 16.2 C 77 % 12.17 C
267 11-09-2019 22:10:00 16.3 C 78 % 12.46 C
268 11-09-2019 22:15:00 16.3 C 77 % 12.26 C
269 11-09-2019 22:20:00 16.5 C 76 % 12.26 C
270 11-09-2019 22:25:00 16.6 C 77 % 12.55 C
271 11-09-2019 22:30:00 16.7 C 79 % 13.04 C
272 11-09-2019 22:35:00 16.7 C 80 % 13.23 C
273 11-09-2019 22:40:00 16.6 C 81 % 13.33 C
274 11-09-2019 22:45:00 16.4 C 82 % 13.32 C
275 11-09-2019 22:50:00 16.3 C 82 % 13.22 C
Sensor: Nr:Datum:Temp:Feuchte:Taupunkt:
Aussen-T/F 276 11-09-2019 22:55:00 16.2 C 83 % 13.31 C
277 11-09-2019 23:00:00 16 C 83 % 13.12 C
278 11-09-2019 23:05:00 15.9 C 83 % 13.02 C
279 11-09-2019 23:10:00 15.8 C 83 % 12.92 C
280 11-09-2019 23:15:00 15.8 C 83 % 12.92 C
281 11-09-2019 23:20:00 15.8 C 83 % 12.92 C
282 11-09-2019 23:25:00 15.7 C 84 % 13.01 C
283 11-09-2019 23:30:00 15.7 C 84 % 13.01 C
284 11-09-2019 23:35:00 15.7 C 83 % 12.82 C
285 11-09-2019 23:40:00 15.6 C 83 % 12.72 C
286 11-09-2019 23:45:00 15.6 C 84 % 12.91 C
287 11-09-2019 23:50:00 15.4 C 83 % 12.53 C
288 11-09-2019 23:55:00 15.4 C 84 % 12.71 C
289 12-09-2019 00:00:00 15.3 C 83 % 12.43 C
290 12-09-2019 00:05:00 15.3 C 83 % 12.43 C
291 12-09-2019 00:10:00 15.3 C 84 % 12.61 C
292 12-09-2019 00:15:00 15.3 C 84 % 12.61 C
293 12-09-2019 00:20:00 15.4 C 84 % 12.71 C
294 12-09-2019 00:25:00 15.4 C 84 % 12.71 C
295 12-09-2019 00:30:00 15.5 C 83 % 12.63 C
296 12-09-2019 00:35:00 15.6 C 83 % 12.72 C
297 12-09-2019 00:40:00 15.7 C 84 % 13.01 C
298 12-09-2019 00:45:00 15.7 C 82 % 12.64 C
299 12-09-2019 00:50:00 15.8 C 81 % 12.55 C
300 12-09-2019 00:55:00 15.9 C 80 % 12.46 C
Sensor: Nr:Datum:Temp:Feuchte:Taupunkt:
Aussen-T/F 301 12-09-2019 01:00:00 16.1 C 81 % 12.84 C
302 12-09-2019 01:05:00 16.1 C 81 % 12.84 C
303 12-09-2019 01:10:00 16.2 C 82 % 13.13 C
304 12-09-2019 01:15:00 16.2 C 81 % 12.94 C
305 12-09-2019 01:20:00 16.1 C 81 % 12.84 C
306 12-09-2019 01:25:00 16.1 C 82 % 13.03 C
307 12-09-2019 01:30:00 16.1 C 82 % 13.03 C
308 12-09-2019 01:35:00 16.1 C 81 % 12.84 C
309 12-09-2019 01:40:00 16.1 C 81 % 12.84 C
310 12-09-2019 01:45:00 16.1 C 80 % 12.65 C
311 12-09-2019 01:50:00 16.2 C 78 % 12.36 C
312 12-09-2019 01:55:00 16.3 C 78 % 12.46 C
313 12-09-2019 02:00:00 16.4 C 78 % 12.56 C
314 12-09-2019 02:05:00 16.6 C 76 % 12.36 C
315 12-09-2019 02:10:00 16.9 C 74 % 12.24 C
316 12-09-2019 02:15:00 17.1 C 74 % 12.43 C
317 12-09-2019 02:20:00 17.2 C 73 % 12.32 C
318 12-09-2019 02:25:00 17.3 C 72 % 12.21 C
319 12-09-2019 02:30:00 17.4 C 73 % 12.51 C
320 12-09-2019 02:35:00 17.5 C 73 % 12.61 C
321 12-09-2019 02:40:00 17.6 C 72 % 12.5 C
322 12-09-2019 02:45:00 17.6 C 73 % 12.71 C
323 12-09-2019 02:50:00 17.6 C 73 % 12.71 C
324 12-09-2019 02:55:00 17.6 C 73 % 12.71 C
325 12-09-2019 03:00:00 17.5 C 74 % 12.82 C
Sensor: Nr:Datum:Temp:Feuchte:Taupunkt:
Aussen-T/F 326 12-09-2019 03:05:00 17.4 C 74 % 12.72 C
327 12-09-2019 03:10:00 17.3 C 75 % 12.83 C
328 12-09-2019 03:15:00 17.3 C 76 % 13.03 C
329 12-09-2019 03:20:00 17.2 C 77 % 13.14 C
330 12-09-2019 03:25:00 17.1 C 75 % 12.64 C
331 12-09-2019 03:30:00 17.1 C 76 % 12.84 C
332 12-09-2019 03:35:00 17.1 C 74 % 12.43 C
333 12-09-2019 03:40:00 17.2 C 75 % 12.73 C
334 12-09-2019 03:45:00 17.2 C 74 % 12.53 C
335 12-09-2019 03:50:00 17.2 C 74 % 12.53 C
336 12-09-2019 03:55:00 17.3 C 75 % 12.83 C
337 12-09-2019 04:00:00 17.2 C 75 % 12.73 C
338 12-09-2019 04:05:00 17.2 C 75 % 12.73 C
339 12-09-2019 04:10:00 17.2 C 76 % 12.94 C
340 12-09-2019 04:15:00 17.1 C 76 % 12.84 C
341 12-09-2019 04:20:00 17.1 C 76 % 12.84 C
342 12-09-2019 04:25:00 17.1 C 76 % 12.84 C
343 12-09-2019 04:30:00 17 C 76 % 12.74 C
344 12-09-2019 04:35:00 17 C 77 % 12.94 C
345 12-09-2019 04:40:00 17 C 77 % 12.94 C
346 12-09-2019 04:45:00 16.9 C 77 % 12.84 C
347 12-09-2019 04:50:00 16.9 C 77 % 12.84 C
348 12-09-2019 04:55:00 16.9 C 78 % 13.04 C
349 12-09-2019 05:00:00 16.8 C 79 % 13.14 C
350 12-09-2019 05:05:00 16.8 C 78 % 12.94 C
Sensor: Nr:Datum:Temp:Feuchte:Taupunkt:
Aussen-T/F 351 12-09-2019 05:10:00 16.8 C 78 % 12.94 C
352 12-09-2019 05:15:00 16.8 C 78 % 12.94 C
353 12-09-2019 05:20:00 16.8 C 78 % 12.94 C
354 12-09-2019 05:25:00 16.9 C 78 % 13.04 C
355 12-09-2019 05:30:00 17.1 C 77 % 13.04 C
356 12-09-2019 05:35:00 17.1 C 77 % 13.04 C
357 12-09-2019 05:40:00 17.1 C 78 % 13.24 C
358 12-09-2019 05:45:00 17.1 C 78 % 13.24 C
359 12-09-2019 05:50:00 17.2 C 77 % 13.14 C
360 12-09-2019 05:55:00 17.2 C 78 % 13.33 C
361 12-09-2019 06:00:00 17.2 C 78 % 13.33 C
362 12-09-2019 06:05:00 17.1 C 78 % 13.24 C
363 12-09-2019 06:10:00 17.1 C 79 % 13.43 C
364 12-09-2019 06:15:00 17 C 79 % 13.33 C
365 12-09-2019 06:20:00 17 C 79 % 13.33 C
366 12-09-2019 06:25:00 16.9 C 79 % 13.24 C
367 12-09-2019 06:30:00 16.8 C 79 % 13.14 C
368 12-09-2019 06:35:00 16.8 C 80 % 13.33 C
369 12-09-2019 06:40:00 16.8 C 80 % 13.33 C
370 12-09-2019 06:45:00 16.8 C 80 % 13.33 C
371 12-09-2019 06:50:00 16.7 C 80 % 13.23 C
372 12-09-2019 06:55:00 16.6 C 80 % 13.14 C
373 12-09-2019 07:00:00 16.4 C 81 % 13.13 C
374 12-09-2019 07:05:00 16.3 C 82 % 13.22 C
375 12-09-2019 07:10:00 16.2 C 82 % 13.13 C
Sensor: Nr:Datum:Temp:Feuchte:Taupunkt:
Aussen-T/F 376 12-09-2019 07:15:00 16.2 C 83 % 13.31 C
377 12-09-2019 07:20:00 16.2 C 83 % 13.31 C
378 12-09-2019 07:25:00 16.2 C 83 % 13.31 C
379 12-09-2019 07:30:00 16.2 C 84 % 13.5 C
380 12-09-2019 07:35:00 16.2 C 84 % 13.5 C
381 12-09-2019 07:40:00 16.2 C 84 % 13.5 C
382 12-09-2019 07:45:00 16.2 C 85 % 13.68 C
383 12-09-2019 07:50:00 16.3 C 85 % 13.77 C
384 12-09-2019 07:55:00 16.3 C 85 % 13.77 C
385 12-09-2019 08:00:00 16.3 C 85 % 13.77 C
386 12-09-2019 08:05:00 16.4 C 84 % 13.69 C
387 12-09-2019 08:10:00 16.6 C 85 % 14.07 C
388 12-09-2019 08:15:00 16.6 C 85 % 14.07 C
389 12-09-2019 08:20:00 16.7 C 84 % 13.98 C
390 12-09-2019 08:25:00 16.8 C 84 % 14.08 C
391 12-09-2019 08:30:00 16.9 C 84 % 14.18 C
392 12-09-2019 08:35:00 17 C 84 % 14.28 C
393 12-09-2019 08:40:00 17.1 C 83 % 14.19 C
394 12-09-2019 08:45:00 17.1 C 84 % 14.38 C
395 12-09-2019 08:50:00 17.2 C 84 % 14.47 C
396 12-09-2019 08:55:00 17.3 C 84 % 14.57 C
397 12-09-2019 09:00:00 17.3 C 84 % 14.57 C
398 12-09-2019 09:05:00 17.3 C 84 % 14.57 C
399 12-09-2019 09:10:00 17.3 C 84 % 14.57 C
400 12-09-2019 09:15:00 17.3 C 84 % 14.57 C
Sensor: Nr:Datum:Temp:Feuchte:Taupunkt:
Aussen-T/F 401 12-09-2019 09:20:00 17.3 C 84 % 14.57 C
402 12-09-2019 09:25:00 17.3 C 84 % 14.57 C
403 12-09-2019 09:30:00 17.3 C 85 % 14.76 C
404 12-09-2019 09:35:00 17.4 C 85 % 14.85 C
405 12-09-2019 09:40:00 17.4 C 85 % 14.85 C
406 12-09-2019 09:45:00 17.6 C 85 % 15.05 C
407 12-09-2019 09:50:00 17.7 C 85 % 15.15 C
408 12-09-2019 09:55:00 17.7 C 85 % 15.15 C
409 12-09-2019 10:00:00 17.8 C 85 % 15.25 C
410 12-09-2019 10:05:00 17.8 C 85 % 15.25 C
411 12-09-2019 10:10:00 17.9 C 85 % 15.34 C
412 12-09-2019 10:15:00 18.1 C 84 % 15.35 C
413 12-09-2019 10:20:00 18.2 C 84 % 15.45 C
414 12-09-2019 10:25:00 18.3 C 84 % 15.55 C
415 12-09-2019 10:30:00 18.4 C 84 % 15.65 C
416 12-09-2019 10:35:00 18.4 C 84 % 15.65 C
417 12-09-2019 10:40:00 18.4 C 84 % 15.65 C
418 12-09-2019 10:45:00 18.4 C 84 % 15.65 C
419 12-09-2019 10:50:00 18.4 C 83 % 15.46 C
420 12-09-2019 10:55:00 18.5 C 83 % 15.56 C
421 12-09-2019 11:00:00 18.6 C 83 % 15.66 C
422 12-09-2019 11:05:00 18.7 C 83 % 15.75 C
423 12-09-2019 11:10:00 18.8 C 83 % 15.85 C
424 12-09-2019 11:15:00 18.9 C 83 % 15.95 C
425 12-09-2019 11:20:00 18.9 C 82 % 15.76 C
Sensor: Nr:Datum:Temp:Feuchte:Taupunkt:
Aussen-T/F 426 12-09-2019 11:25:00 19 C 82 % 15.86 C
427 12-09-2019 11:30:00 19.1 C 83 % 16.15 C
428 12-09-2019 11:35:00 19.3 C 82 % 16.15 C
429 12-09-2019 11:40:00 19.6 C 82 % 16.44 C
430 12-09-2019 11:45:00 19.8 C 81 % 16.45 C
431 12-09-2019 11:50:00 19.9 C 79 % 16.15 C
432 12-09-2019 11:55:00 20 C 80 % 16.44 C
433 12-09-2019 12:00:00 20.1 C 80 % 16.54 C
434 12-09-2019 12:05:00 20.1 C 79 % 16.34 C
435 12-09-2019 12:10:00 20.2 C 79 % 16.44 C
436 12-09-2019 12:15:00 20.3 C 79 % 16.54 C
437 12-09-2019 12:20:00 20.3 C 79 % 16.54 C
438 12-09-2019 12:25:00 20.4 C 79 % 16.64 C
439 12-09-2019 12:30:00 20.3 C 79 % 16.54 C
440 12-09-2019 12:35:00 20.3 C 80 % 16.74 C
441 12-09-2019 12:40:00 20.3 C 79 % 16.54 C
442 12-09-2019 12:45:00 20.3 C 80 % 16.74 C
443 12-09-2019 12:50:00 20.3 C 80 % 16.74 C
444 12-09-2019 12:55:00 20.2 C 80 % 16.64 C
445 12-09-2019 13:00:00 20.2 C 81 % 16.84 C
446 12-09-2019 13:05:00 20.3 C 81 % 16.93 C
447 12-09-2019 13:10:00 20.4 C 80 % 16.83 C
448 12-09-2019 13:15:00 20.5 C 80 % 16.93 C
449 12-09-2019 13:20:00 20.7 C 80 % 17.13 C
450 12-09-2019 13:25:00 20.7 C 78 % 16.73 C
Sensor: Nr:Datum:Temp:Feuchte:Taupunkt:
Aussen-T/F 451 12-09-2019 13:30:00 20.9 C 78 % 16.92 C
452 12-09-2019 13:35:00 21.1 C 77 % 16.91 C
453 12-09-2019 13:40:00 21.3 C 77 % 17.1 C
454 12-09-2019 13:45:00 21.5 C 77 % 17.3 C
455 12-09-2019 13:50:00 21.6 C 76 % 17.19 C
456 12-09-2019 13:55:00 21.6 C 75 % 16.98 C
457 12-09-2019 14:00:00 21.6 C 76 % 17.19 C
458 12-09-2019 14:05:00 21.5 C 76 % 17.09 C
459 12-09-2019 14:10:00 21.4 C 76 % 16.99 C
460 12-09-2019 14:15:00 21.4 C 76 % 16.99 C
461 12-09-2019 14:20:00 21.4 C 78 % 17.4 C
462 12-09-2019 14:25:00 21.4 C 77 % 17.2 C
463 12-09-2019 14:30:00 21.4 C 79 % 17.61 C
464 12-09-2019 14:35:00 21.4 C 80 % 17.81 C
465 12-09-2019 14:40:00 21.3 C 80 % 17.71 C
466 12-09-2019 14:45:00 21.3 C 81 % 17.91 C
467 12-09-2019 14:50:00 21.3 C 81 % 17.91 C
468 12-09-2019 14:55:00 21.2 C 81 % 17.81 C
469 12-09-2019 15:00:00 21.2 C 82 % 18 C
470 12-09-2019 15:05:00 21.3 C 78 % 17.31 C
471 12-09-2019 15:10:00 21.6 C 76 % 17.19 C
472 12-09-2019 15:15:00 21.9 C 76 % 17.48 C
473 12-09-2019 15:20:00 22.5 C 74 % 17.63 C
474 12-09-2019 15:25:00 22.7 C 74 % 17.83 C
475 12-09-2019 15:30:00 22.8 C 72 % 17.49 C
Sensor: Nr:Datum:Temp:Feuchte:Taupunkt:
Aussen-T/F 476 12-09-2019 15:35:00 22.7 C 71 % 17.17 C
477 12-09-2019 15:40:00 22.7 C 72 % 17.39 C
478 12-09-2019 15:45:00 22.6 C 74 % 17.73 C
479 12-09-2019 15:50:00 22.6 C 75 % 17.94 C
480 12-09-2019 15:55:00 22.5 C 76 % 18.06 C
481 12-09-2019 16:00:00 22.3 C 73 % 17.23 C
482 12-09-2019 16:05:00 22.3 C 74 % 17.44 C
483 12-09-2019 16:10:00 22.3 C 76 % 17.86 C
484 12-09-2019 16:15:00 22.2 C 76 % 17.77 C
485 12-09-2019 16:20:00 22.5 C 75 % 17.85 C
486 12-09-2019 16:25:00 22.8 C 72 % 17.49 C
487 12-09-2019 16:30:00 23.2 C 69 % 17.2 C
488 12-09-2019 16:35:00 23.2 C 70 % 17.42 C
489 12-09-2019 16:40:00 23.3 C 68 % 17.06 C
490 12-09-2019 16:45:00 23.6 C 69 % 17.58 C
491 12-09-2019 16:50:00 23.8 C 68 % 17.54 C
492 12-09-2019 16:55:00 23.9 C 69 % 17.87 C
493 12-09-2019 17:00:00 23.9 C 67 % 17.4 C
494 12-09-2019 17:05:00 24.2 C 67 % 17.68 C
495 12-09-2019 17:10:00 24.7 C 64 % 17.43 C
496 12-09-2019 17:15:00 24.7 C 64 % 17.43 C
497 12-09-2019 17:20:00 24.2 C 65 % 17.2 C
498 12-09-2019 17:25:00 24.1 C 66 % 17.35 C
499 12-09-2019 17:30:00 24 C 66 % 17.26 C
500 12-09-2019 17:35:00 24.2 C 65 % 17.2 C
Sensor: Nr:Datum:Temp:Feuchte:Taupunkt:
Aussen-T/F 501 12-09-2019 17:40:00 24.7 C 64 % 17.43 C
502 12-09-2019 17:45:00 25 C 64 % 17.72 C
503 12-09-2019 17:50:00 25.1 C 61 % 17.05 C
504 12-09-2019 17:55:00 24.5 C 65 % 17.49 C
505 12-09-2019 18:00:00 24.5 C 63 % 16.99 C
506 12-09-2019 18:05:00 24.8 C 63 % 17.28 C
507 12-09-2019 18:10:00 24.9 C 65 % 17.87 C
508 12-09-2019 18:15:00 24.9 C 65 % 17.87 C
509 12-09-2019 18:20:00 24.9 C 64 % 17.62 C
510 12-09-2019 18:25:00 25.1 C 66 % 18.3 C
511 12-09-2019 18:30:00 25.2 C 63 % 17.65 C
512 12-09-2019 18:35:00 25.3 C 64 % 18 C
513 12-09-2019 18:40:00 25.3 C 63 % 17.75 C
514 12-09-2019 18:45:00 25.2 C 61 % 17.14 C
515 12-09-2019 18:50:00 24.8 C 64 % 17.53 C
516 12-09-2019 18:55:00 24.6 C 65 % 17.58 C
517 12-09-2019 19:00:00 24.4 C 66 % 17.64 C
518 12-09-2019 19:05:00 24.2 C 66 % 17.45 C
519 12-09-2019 19:10:00 24.1 C 67 % 17.59 C
520 12-09-2019 19:15:00 23.9 C 68 % 17.63 C
521 12-09-2019 19:20:00 23.7 C 68 % 17.44 C
522 12-09-2019 19:25:00 23.4 C 68 % 17.16 C
523 12-09-2019 19:30:00 23.1 C 69 % 17.1 C
524 12-09-2019 19:35:00 22.6 C 70 % 16.85 C
525 12-09-2019 19:40:00 22 C 71 % 16.5 C
Sensor: Nr:Datum:Temp:Feuchte:Taupunkt:
Aussen-T/F 526 12-09-2019 19:45:00 21.5 C 73 % 16.46 C
527 12-09-2019 19:50:00 20.9 C 75 % 16.3 C
528 12-09-2019 19:55:00 20.6 C 76 % 16.22 C
529 12-09-2019 20:00:00 20.2 C 78 % 16.24 C
530 12-09-2019 20:05:00 19.9 C 79 % 16.15 C
531 12-09-2019 20:10:00 19.6 C 79 % 15.86 C
532 12-09-2019 20:15:00 19.4 C 80 % 15.86 C
533 12-09-2019 20:20:00 19.3 C 81 % 15.96 C
534 12-09-2019 20:25:00 19.1 C 81 % 15.76 C
535 12-09-2019 20:30:00 18.9 C 81 % 15.57 C
536 12-09-2019 20:35:00 18.8 C 82 % 15.66 C
537 12-09-2019 20:40:00 18.7 C 82 % 15.57 C
538 12-09-2019 20:45:00 18.6 C 83 % 15.66 C
539 12-09-2019 20:50:00 18.5 C 83 % 15.56 C
540 12-09-2019 20:55:00 18.4 C 83 % 15.46 C
541 12-09-2019 21:00:00 18.3 C 84 % 15.55 C
542 12-09-2019 21:05:00 18.2 C 84 % 15.45 C
543 12-09-2019 21:10:00 18.1 C 85 % 15.54 C
544 12-09-2019 21:15:00 18.1 C 84 % 15.35 C
545 12-09-2019 21:20:00 18.1 C 85 % 15.54 C
546 12-09-2019 21:25:00 18.1 C 85 % 15.54 C
547 12-09-2019 21:30:00 18.2 C 85 % 15.64 C
548 12-09-2019 21:35:00 18.2 C 85 % 15.64 C
549 12-09-2019 21:40:00 18.3 C 85 % 15.74 C
550 12-09-2019 21:45:00 18.3 C 85 % 15.74 C
Sensor: Nr:Datum:Temp:Feuchte:Taupunkt:
Aussen-T/F 551 12-09-2019 21:50:00 18.4 C 85 % 15.83 C
552 12-09-2019 21:55:00 18.4 C 85 % 15.83 C
553 12-09-2019 22:00:00 18.4 C 84 % 15.65 C
554 12-09-2019 22:05:00 18.4 C 84 % 15.65 C
555 12-09-2019 22:10:00 18.4 C 84 % 15.65 C
556 12-09-2019 22:15:00 18.4 C 84 % 15.65 C
557 12-09-2019 22:20:00 18.4 C 84 % 15.65 C
558 12-09-2019 22:25:00 18.4 C 84 % 15.65 C
559 12-09-2019 22:30:00 18.4 C 84 % 15.65 C
560 12-09-2019 22:35:00 18.4 C 84 % 15.65 C
561 12-09-2019 22:40:00 18.4 C 84 % 15.65 C
562 12-09-2019 22:45:00 18.3 C 84 % 15.55 C
563 12-09-2019 22:50:00 18.2 C 84 % 15.45 C
564 12-09-2019 22:55:00 18.1 C 84 % 15.35 C
565 12-09-2019 23:00:00 17.8 C 84 % 15.06 C
566 12-09-2019 23:05:00 17.7 C 85 % 15.15 C
567 12-09-2019 23:10:00 17.5 C 85 % 14.95 C
568 12-09-2019 23:15:00 17.3 C 86 % 14.94 C
569 12-09-2019 23:20:00 17.2 C 86 % 14.84 C
570 12-09-2019 23:25:00 17.1 C 87 % 14.92 C
571 12-09-2019 23:30:00 16.9 C 87 % 14.72 C
572 12-09-2019 23:35:00 16.8 C 88 % 14.8 C
573 12-09-2019 23:40:00 16.7 C 88 % 14.7 C
574 12-09-2019 23:45:00 16.7 C 88 % 14.7 C
575 12-09-2019 23:50:00 16.6 C 88 % 14.6 C
Sensor: Nr:Datum:Temp:Feuchte:Taupunkt:
Aussen-T/F 576 12-09-2019 23:55:00 16.5 C 89 % 14.68 C

Legende:
   Min
   Max


Maximal/Minimal-Werte vom 11.09.2019 - 12.09.2019

Sensor Min Max Avg
Temp
(Aussen-T/F)
6.4 °C
11-09-2019  06:55:00
25.3 °C
12-09-2019  18:35:00
16.21 °C
Feuchte
(Aussen-T/F)
53 %
11-09-2019  14:45:00
97 %
11-09-2019  08:20:00
79.67 %
Taupunkt
(Aussen-T/F)
5.66 C
11-09-2019  06:55:00
18.3 C
12-09-2019  18:25:00
12.47 C

Die Daten stammen von einer Davis Vantage Pro 2 Wetter-Station und werden unter Linux mit der Software wview2wettercgi und aufbereitet. Alle Angaben erfolgen ohne Gewähr für ihre Vollständigkeit oder Richtigkeit.
Kontakt: Rainer Krienke krienke@uni-koblenz.de . Meine Webseiten an der Uni Koblenz oder privat.
Version: $Revision: 0.78 $